Airfield :







YOU CAN JOIN US ON...

 
LOGIN :

Register | Disclaimer

   EN    FR    IT 

 









Legend :    VFR   Marginal VFR   IFR   Intensive IFR   Very Intensive IFR
Visi :
Ceiling :
>= 8 km
>= 3000ft
5 to 8 km
1000 to 3000 ft
1500m to 5 km
500 to 1000 ft
800 to 1500m
200 to 500 ft
< 800m
< 200 ft
Symbols :   Thunderstorms  Fog  Heavy snow  Heavy precipitations  Wind > 20 kt







- Airport Elevation : 626 ft


KCAR - Caribou Municipal

CURRENT METAR :
  • 262333Z AUTO 18012G18KT 10SM OVC014 17/13 A3008 RMK AO2 T01670133

EXPIRED METARs :
  • 262254Z AUTO 17013G22KT 10SM OVC015 17/13 A3007 RMK AO2 SLP185 T01720133
  • 262221Z AUTO 16014G20KT 10SM OVC015 17/13 A3005 RMK AO2 T01720133
  • 262203Z AUTO 17015G22KT 10SM OVC014 17/14 A3005 RMK AO2 T01720139
  • 262154Z AUTO 15014G20KT 10SM OVC015 17/14 A3005 RMK AO2 SLP180 T01720139
  • 262054Z AUTO 17012KT 10SM OVC011 17/14 A3007 RMK AO2 SLP185 T01670139 53000

TAF KCAR
Valid from the 27 at 00:00 until the 28 at 00:00 UTC


262328Z 2700/2724 16010G17KT P6SM OVC012
FM270300 15007KT P6SM VCSH OVC008
FM270600 16006KT 2SM BR VCSH OVC005
FM271300 16007KT P6SM OVC008
FM271600 16007KT P6SM OVC014
FM272000 16008KT P6SM VCSH OVC022
KZBW FIR / North America



MET'MAP, your aeronautical weather chart ! - Copyright ORBIFLY December 2007 - Disclaimer

ORBIFLY MET'MAP TEAM :

Programming & Development : Alexandra Zaïnal
Concept & Development : Baudouin d'Aumeries
Co-Development & Prog : Marc-Olivier Méhu
Technical & hardware support : Manuel Goepfert

Contact : metmap@orbifly.com




SOURCES & CREDITS :

   NOAA